LIBP/PSR METAR and TAF weather

Enter ICAO airport designator
Station Type Date Time Source
LIBP METAR 2019/09/21 20:50 UTC NOAA

LIBP 212050Z 22005KT CAVOK 14/13 Q1022


Station Type Date Time Source
LIBP Decoded METAR 2019/09/21 20:50 UTC NOAA

Pescara, Italy (LIBP) 42-26N 014-12E 11M
Sep 21, 2019 - 04:50 PM EDT / 2019.09.21 2050 UTC
Wind: from the SW (220 degrees) at 6 MPH (5 KT):0
Visibility: greater than 7 mile(s):0
Temperature: 57 F (14 C)
Dew Point: 55 F (13 C)
Relative Humidity: 93%
Pressure (altimeter): 30.18 in. Hg (1022 hPa)
ob: LIBP 212050Z 22005KT CAVOK 14/13 Q1022
cycle: 21

Station Type Date Time Source
LIBP TAF 2019/09/21 18:22 UTC NOAA

TAF LIBP 211700Z 2118/2218 VRB05KT 9999 FEW030

Example: see airport list